createdAt,value
2023-03-27T00:00:56.776Z,99050.97
2023-03-27T00:04:00.630Z,99037.50
2023-03-27T00:07:03.985Z,99026.09
2023-03-27T00:10:08.117Z,99018.72
2023-03-27T00:13:11.436Z,99015.84
2023-03-27T00:16:14.443Z,99008.59
2023-03-27T00:19:18.060Z,99002.03
2023-03-27T00:22:21.325Z,98985.81
2023-03-27T00:25:26.792Z,98965.53
2023-03-27T00:28:30.399Z,98957.59
2023-03-27T00:31:33.526Z,98948.75
2023-03-27T00:34:36.469Z,98949.03
2023-03-27T00:37:39.872Z,98941.72
2023-03-27T00:40:44.973Z,98939.97
2023-03-27T00:43:48.961Z,98950.53
2023-03-27T00:46:55.411Z,98944.28
2023-03-27T00:50:01.460Z,98940.03
2023-03-27T00:53:16.052Z,98930.81
2023-03-27T00:56:19.076Z,98923.69
2023-03-27T00:59:26.475Z,98914.22
2023-03-27T01:02:29.476Z,98905.94
2023-03-27T01:05:33.461Z,98896.72
2023-03-27T01:08:37.922Z,98885.88
2023-03-27T01:11:41.330Z,98886.53
2023-03-27T01:14:44.132Z,98883.09
2023-03-27T01:18:10.347Z,98868.50
2023-03-27T01:21:25.348Z,98852.06
2023-03-27T01:25:07.947Z,98846.22
2023-03-27T01:28:38.967Z,98825.03
2023-03-27T01:31:48.079Z,98826.81
2023-03-27T01:35:01.892Z,98822.81
2023-03-27T01:38:20.218Z,98806.63
2023-03-27T01:41:43.838Z,98796.09
2023-03-27T01:44:53.995Z,98786.50
2023-03-27T01:48:26.593Z,98762.38
2023-03-27T01:51:36.448Z,98763.81
2023-03-27T01:54:46.763Z,98773.78
2023-03-27T01:58:00.596Z,98787.00
2023-03-27T02:01:06.507Z,98798.56
2023-03-27T02:04:17.916Z,98801.66
2023-03-27T02:07:37.577Z,98809.38
2023-03-27T02:10:48.538Z,98823.63
2023-03-27T02:14:00.715Z,98821.00
2023-03-27T02:17:10.463Z,98814.50
2023-03-27T02:20:16.630Z,98805.19
2023-03-27T02:23:19.682Z,98813.94
2023-03-27T02:26:22.536Z,98817.31
2023-03-27T02:29:40.438Z,98830.53
2023-03-27T02:33:27.621Z,98837.75
2023-03-27T02:36:55.319Z,98853.19
2023-03-27T02:40:40.128Z,98851.13
2023-03-27T02:44:01.937Z,98860.97
2023-03-27T02:47:38.279Z,98867.09
2023-03-27T02:50:47.178Z,98868.53
2023-03-27T02:53:58.347Z,98863.59
2023-03-27T02:57:09.208Z,98872.56
2023-03-27T03:00:43.968Z,98865.44
2023-03-27T03:04:00.735Z,98865.94
2023-03-27T03:07:16.370Z,98851.47
2023-03-27T03:10:21.907Z,98859.66
2023-03-27T03:13:24.827Z,98854.28
2023-03-27T03:16:30.008Z,98858.19
2023-03-27T03:19:32.945Z,98861.47
2023-03-27T03:22:36.603Z,98862.50
2023-03-27T03:25:39.672Z,98871.66
2023-03-27T03:29:00.536Z,98875.69
2023-03-27T03:32:08.479Z,98868.13
2023-03-27T03:35:13.857Z,98857.56
2023-03-27T03:38:25.189Z,98844.50
2023-03-27T03:41:28.678Z,98846.91
2023-03-27T03:44:37.246Z,98841.88
2023-03-27T03:47:54.630Z,98829.69
2023-03-27T03:51:00.828Z,98810.75
2023-03-27T03:54:06.853Z,98796.84
2023-03-27T03:57:09.862Z,98819.09
2023-03-27T04:00:13.504Z,98826.22
2023-03-27T04:03:32.443Z,98807.97
2023-03-27T04:06:38.028Z,98830.56
2023-03-27T04:09:40.815Z,98806.78
2023-03-27T04:12:52.928Z,98825.53
2023-03-27T04:16:03.097Z,98812.66
2023-03-27T04:19:08.625Z,98827.47
2023-03-27T04:22:17.443Z,98821.75
2023-03-27T04:25:22.973Z,98818.06
2023-03-27T04:28:34.371Z,98817.50
2023-03-27T04:31:52.160Z,98814.63
2023-03-27T04:35:13.711Z,98816.03
2023-03-27T04:38:34.505Z,98816.03
2023-03-27T04:41:38.810Z,98811.09
2023-03-27T04:44:46.648Z,98815.59
2023-03-27T04:47:50.855Z,98818.91
2023-03-27T04:50:56.144Z,98820.53
2023-03-27T04:54:08.485Z,98821.13
2023-03-27T04:57:19.375Z,98818.91
2023-03-27T05:00:25.151Z,98827.66
2023-03-27T05:04:03.056Z,98829.94
2023-03-27T05:07:20.161Z,98837.31
2023-03-27T05:10:24.224Z,98824.31
2023-03-27T05:13:29.027Z,98829.94
2023-03-27T05:16:31.838Z,98821.00
2023-03-27T05:19:37.539Z,98819.06
2023-03-27T05:22:41.548Z,98825.13
2023-03-27T05:25:59.881Z,98832.84
2023-03-27T05:29:12.708Z,98826.16
2023-03-27T05:32:19.168Z,98818.47
2023-03-27T05:35:30.540Z,98816.97
2023-03-27T05:38:34.917Z,98818.13
2023-03-27T05:41:52.364Z,98831.31
2023-03-27T05:45:00.309Z,98824.16
2023-03-27T05:48:04.525Z,98815.38
2023-03-27T05:51:13.720Z,98816.25
2023-03-27T05:54:18.042Z,98802.81
2023-03-27T05:57:27.557Z,98805.81
2023-03-27T06:00:34.875Z,98805.25
2023-03-27T06:03:39.221Z,98806.94
2023-03-27T06:06:55.626Z,98803.50
2023-03-27T06:10:01.976Z,98799.69
2023-03-27T06:13:13.663Z,98792.56
2023-03-27T06:16:43.226Z,98803.00
2023-03-27T06:20:13.001Z,98809.69
2023-03-27T06:23:18.883Z,98818.06
2023-03-27T06:26:22.671Z,98826.06
2023-03-27T06:29:29.700Z,98828.03
2023-03-27T06:32:32.674Z,98826.41
2023-03-27T06:35:35.804Z,98835.84
2023-03-27T06:38:48.093Z,98833.59
2023-03-27T06:41:51.212Z,98841.69
2023-03-27T06:45:06.003Z,98839.31
2023-03-27T06:48:29.086Z,98842.97
2023-03-27T06:51:33.176Z,98859.56
2023-03-27T06:54:37.103Z,98866.66
2023-03-27T06:57:51.387Z,98872.28
2023-03-27T07:00:55.650Z,98864.53
2023-03-27T07:03:58.750Z,98870.34
2023-03-27T07:07:51.318Z,98876.31
2023-03-27T07:11:34.781Z,98881.72
2023-03-27T07:19:29.629Z,98882.63
2023-03-27T07:22:44.463Z,98888.22
2023-03-27T07:25:59.589Z,98884.25
2023-03-27T07:29:22.988Z,98881.03
2023-03-27T07:32:37.128Z,98877.16
2023-03-27T07:35:43.772Z,98880.38
2023-03-27T07:39:09.935Z,98880.13
2023-03-27T07:42:13.598Z,98881.50
2023-03-27T07:45:38.177Z,98883.84
2023-03-27T07:48:41.579Z,98886.22
2023-03-27T07:51:51.718Z,98882.06
2023-03-27T07:54:57.118Z,98901.63
2023-03-27T07:58:07.114Z,98894.16
2023-03-27T08:01:13.533Z,98897.75
2023-03-27T08:04:19.883Z,98914.28
2023-03-27T08:07:38.211Z,98914.03
2023-03-27T08:10:42.860Z,98920.44
2023-03-27T08:13:47.113Z,98921.81
2023-03-27T08:16:50.033Z,98927.19
2023-03-27T08:19:54.024Z,98933.06
2023-03-27T08:22:57.267Z,98945.09
2023-03-27T08:26:06.535Z,98946.91
2023-03-27T08:29:16.662Z,98952.56
2023-03-27T08:32:23.054Z,98962.00
2023-03-27T08:35:28.762Z,98971.34
2023-03-27T08:38:33.791Z,98961.63
2023-03-27T08:41:51.743Z,98966.44
2023-03-27T08:45:09.044Z,98973.44
2023-03-27T08:48:27.638Z,98972.47
2023-03-27T08:51:48.634Z,98977.75
2023-03-27T08:55:18.908Z,98985.78
2023-03-27T08:58:46.906Z,98989.66
2023-03-27T09:02:29.953Z,98986.97
2023-03-27T09:05:40.712Z,98984.22
2023-03-27T09:08:50.067Z,98997.06
2023-03-27T09:12:05.134Z,98984.84
2023-03-27T09:15:16.942Z,98996.88
2023-03-27T09:18:34.784Z,99002.75
2023-03-27T09:21:41.978Z,98995.66
2023-03-27T09:24:52.266Z,99004.03
2023-03-27T09:28:53.707Z,98998.56
2023-03-27T09:32:01.036Z,98995.06
2023-03-27T09:35:06.822Z,99000.00
2023-03-27T09:38:27.386Z,99006.22
2023-03-27T09:41:43.021Z,99005.84
2023-03-27T09:44:58.933Z,99004.84
2023-03-27T09:48:12.126Z,99010.22
2023-03-27T09:51:40.502Z,99017.25
2023-03-27T09:54:55.055Z,99031.13
2023-03-27T09:58:15.901Z,99031.22
2023-03-27T10:01:34.816Z,99040.59
2023-03-27T10:05:02.785Z,99044.88
2023-03-27T10:08:27.148Z,99036.59
2023-03-27T10:12:20.589Z,99045.19
2023-03-27T10:15:25.750Z,99044.56
2023-03-27T10:18:35.308Z,99049.44
2023-03-27T10:21:47.011Z,99058.75
2023-03-27T10:25:03.245Z,99056.19
2023-03-27T10:28:36.411Z,99067.19
2023-03-27T10:31:54.438Z,99066.91
2023-03-27T10:35:26.242Z,99074.88
2023-03-27T10:38:56.454Z,99080.19
2023-03-27T10:42:10.240Z,99091.19
2023-03-27T10:45:22.000Z,99088.06
2023-03-27T10:48:54.863Z,99086.91
2023-03-27T10:52:21.875Z,99095.75
2023-03-27T10:56:09.221Z,99089.66
2023-03-27T10:59:28.215Z,99092.19
2023-03-27T11:02:58.031Z,99098.00
2023-03-27T11:06:07.100Z,99100.88
2023-03-27T11:09:29.898Z,99112.13
2023-03-27T11:12:43.004Z,99112.59
2023-03-27T11:15:56.030Z,99122.69
2023-03-27T11:19:38.320Z,99123.22
2023-03-27T11:23:30.482Z,99138.91
2023-03-27T11:27:19.197Z,99139.66
2023-03-27T11:30:39.095Z,99149.50
2023-03-27T11:34:29.077Z,99154.94
2023-03-27T11:37:44.615Z,99152.97
2023-03-27T11:40:52.492Z,99156.25
2023-03-27T11:43:55.311Z,99159.38
2023-03-27T11:48:01.518Z,99161.38
2023-03-27T11:51:37.311Z,99161.75
2023-03-27T11:54:54.453Z,99170.13
2023-03-27T11:58:16.154Z,99175.59
2023-03-27T12:01:38.728Z,99179.06
2023-03-27T12:04:50.842Z,99181.94
2023-03-27T12:08:36.830Z,99197.78
2023-03-27T12:11:52.796Z,99195.03
2023-03-27T12:15:36.666Z,99207.25
2023-03-27T12:19:08.051Z,99213.56
2023-03-27T12:22:43.919Z,99204.19
2023-03-27T12:26:35.643Z,99204.44
2023-03-27T12:29:59.431Z,99223.09
2023-03-27T12:33:27.680Z,99225.94
2023-03-27T12:36:40.591Z,99238.06
2023-03-27T12:39:54.157Z,99231.41
2023-03-27T12:43:09.336Z,99234.53
2023-03-27T12:46:25.384Z,99231.06
2023-03-27T12:49:46.989Z,99223.72
2023-03-27T12:52:57.979Z,99246.56
2023-03-27T12:56:17.230Z,99233.06
2023-03-27T12:59:29.660Z,99234.63
2023-03-27T13:02:57.574Z,99239.72
2023-03-27T13:06:04.742Z,99231.97
2023-03-27T13:09:19.750Z,99247.56
2023-03-27T13:13:18.928Z,99261.34
2023-03-27T13:17:07.106Z,99257.72
2023-03-27T13:20:22.629Z,99265.34
2023-03-27T13:23:54.117Z,99281.22
2023-03-27T13:27:40.428Z,99293.72
2023-03-27T13:30:51.795Z,99307.91
2023-03-27T13:34:37.655Z,99321.16
2023-03-27T13:38:04.384Z,99343.75
2023-03-27T13:41:46.739Z,99358.56
2023-03-27T13:45:20.876Z,99366.25
2023-03-27T13:48:42.186Z,99382.63
2023-03-27T13:52:32.475Z,99396.22
2023-03-27T13:56:10.719Z,99388.31
2023-03-27T13:59:54.744Z,99386.50
2023-03-27T14:03:24.667Z,99405.38
2023-03-27T14:06:41.844Z,99424.88
2023-03-27T14:10:08.691Z,99436.22
2023-03-27T14:13:57.626Z,99433.47
2023-03-27T14:17:12.371Z,99449.38
2023-03-27T14:20:30.263Z,99475.41
2023-03-27T14:23:56.313Z,99459.31
2023-03-27T14:27:18.855Z,99485.28
2023-03-27T14:30:33.573Z,99509.50
2023-03-27T14:34:08.007Z,99507.09
2023-03-27T14:37:29.372Z,99501.53
2023-03-27T14:40:47.577Z,99523.69
2023-03-27T14:43:54.319Z,99529.47
2023-03-27T14:47:04.173Z,99544.69
2023-03-27T14:50:15.033Z,99552.41
2023-03-27T14:53:26.343Z,99559.53
2023-03-27T14:56:47.914Z,99576.34
2023-03-27T15:00:16.585Z,99581.84
2023-03-27T15:03:26.432Z,99597.50
2023-03-27T15:06:36.493Z,99603.16
2023-03-27T15:09:42.057Z,99616.56
2023-03-27T15:13:15.393Z,99643.91
2023-03-27T15:16:26.853Z,99651.38
2023-03-27T15:19:45.703Z,99663.16
2023-03-27T15:23:00.220Z,99676.50
2023-03-27T15:26:24.572Z,99662.72
2023-03-27T15:29:39.336Z,99678.28
2023-03-27T15:32:50.960Z,99684.97
2023-03-27T15:35:56.842Z,99695.25
2023-03-27T15:39:01.733Z,99688.59
2023-03-27T15:42:06.955Z,99681.91
2023-03-27T15:45:11.435Z,99697.88
2023-03-27T15:48:30.942Z,99709.97
2023-03-27T15:51:34.232Z,99729.22
2023-03-27T15:54:54.277Z,99733.81
2023-03-27T15:57:57.898Z,99736.63
2023-03-27T16:01:03.533Z,99753.88
2023-03-27T16:04:45.834Z,99754.78
2023-03-27T16:07:49.283Z,99774.22
2023-03-27T16:10:54.485Z,99773.59
2023-03-27T16:13:59.094Z,99773.00
2023-03-27T16:17:37.735Z,99793.19
2023-03-27T16:20:40.917Z,99816.41
2023-03-27T16:23:44.524Z,99800.78
2023-03-27T16:26:47.983Z,99825.84
2023-03-27T16:29:54.437Z,99802.94
2023-03-27T16:32:57.383Z,99820.75
2023-03-27T16:36:00.951Z,99837.72
2023-03-27T16:39:04.529Z,99846.34
2023-03-27T16:42:12.052Z,99839.28
2023-03-27T16:45:15.181Z,99860.97
2023-03-27T16:48:18.242Z,99857.72
2023-03-27T16:51:24.331Z,99878.16
2023-03-27T16:54:27.084Z,99882.59
2023-03-27T16:57:29.880Z,99901.38
2023-03-27T17:00:36.096Z,99906.38
2023-03-27T17:03:39.368Z,99913.00
2023-03-27T17:06:42.402Z,99907.75
2023-03-27T17:09:45.267Z,99883.50
2023-03-27T17:12:48.180Z,99923.91
2023-03-27T17:15:51.323Z,99929.16
2023-03-27T17:18:55.988Z,99920.50
2023-03-27T17:21:59.051Z,99945.63
2023-03-27T17:25:02.611Z,99942.59
2023-03-27T17:28:07.293Z,99958.63
2023-03-27T17:31:10.461Z,99930.72
2023-03-27T17:34:13.528Z,99969.16
2023-03-27T17:37:16.942Z,99978.19
2023-03-27T17:40:24.302Z,99985.47
2023-03-27T17:43:27.646Z,99991.13
2023-03-27T17:46:30.722Z,100003.44
2023-03-27T17:49:34.834Z,100006.06
2023-03-27T17:52:37.818Z,100003.00
2023-03-27T17:55:41.585Z,100013.06
2023-03-27T17:58:49.348Z,100018.88
2023-03-27T18:01:52.471Z,100007.72
2023-03-27T18:04:55.573Z,100025.28
2023-03-27T18:07:58.527Z,100020.16
2023-03-27T18:11:02.368Z,100006.41
2023-03-27T18:14:05.627Z,100034.84
2023-03-27T18:17:09.013Z,100029.59
2023-03-27T18:20:13.009Z,100031.59
2023-03-27T18:23:18.110Z,100039.94
2023-03-27T18:26:21.174Z,100061.28
2023-03-27T18:29:25.028Z,100065.84
2023-03-27T18:32:27.834Z,100069.38
2023-03-27T18:35:34.059Z,100087.75
2023-03-27T18:38:40.199Z,100074.63
2023-03-27T18:41:43.411Z,100110.59
2023-03-27T18:44:48.190Z,100090.94
2023-03-27T18:47:51.350Z,100098.69
2023-03-27T18:51:00.671Z,100106.41
2023-03-27T18:54:04.003Z,100105.94
2023-03-27T18:57:07.163Z,100114.94
2023-03-27T19:00:15.225Z,100128.69
2023-03-27T19:03:20.188Z,100140.47
2023-03-27T19:06:25.529Z,100146.25
2023-03-27T19:09:40.887Z,100143.91
2023-03-27T19:12:45.090Z,100152.59
2023-03-27T19:16:14.508Z,100163.63
2023-03-27T19:19:25.064Z,100187.44
2023-03-27T19:23:00.590Z,100187.34
2023-03-27T19:26:10.468Z,100200.63
2023-03-27T19:29:17.083Z,100206.59
2023-03-27T19:32:21.249Z,100202.19
2023-03-27T19:35:25.536Z,100216.66
2023-03-27T19:38:28.993Z,100220.47
2023-03-27T19:41:31.773Z,100218.97
2023-03-27T19:44:34.983Z,100224.59
2023-03-27T19:47:38.181Z,100236.88
2023-03-27T19:50:41.517Z,100241.31
2023-03-27T19:53:50.506Z,100248.25
2023-03-27T19:56:56.866Z,100255.50
2023-03-27T19:59:59.979Z,100260.25
2023-03-27T20:03:03.703Z,100270.97
2023-03-27T20:06:13.334Z,100271.78
2023-03-27T20:09:17.651Z,100275.75
2023-03-27T20:12:22.505Z,100284.44
2023-03-27T20:15:26.674Z,100278.16
2023-03-27T20:18:32.914Z,100284.91
2023-03-27T20:21:40.903Z,100287.22
2023-03-27T20:24:48.874Z,100296.06
2023-03-27T20:27:51.620Z,100304.41
2023-03-27T20:30:55.159Z,100312.97
2023-03-27T20:33:58.231Z,100307.72
2023-03-27T20:37:03.694Z,100312.31
2023-03-27T20:40:11.868Z,100310.09
2023-03-27T20:43:15.331Z,100314.88
2023-03-27T20:46:18.190Z,100317.72
2023-03-27T20:52:30.027Z,100315.78
2023-03-27T20:55:39.182Z,100320.22
2023-03-27T20:58:48.956Z,100333.38
2023-03-27T21:01:51.723Z,100342.38
2023-03-27T21:04:54.526Z,100351.53
2023-03-27T21:07:57.380Z,100359.75
2023-03-27T21:11:03.586Z,100372.72
2023-03-27T21:14:06.880Z,100378.47
2023-03-27T21:17:09.630Z,100379.28
2023-03-27T21:20:12.523Z,100384.19
2023-03-27T21:23:16.775Z,100390.75
2023-03-27T21:26:20.554Z,100395.19
2023-03-27T21:29:25.273Z,100406.81
2023-03-27T21:32:28.189Z,100396.50
2023-03-27T21:35:30.998Z,100399.94
2023-03-27T21:38:44.255Z,100398.75
2023-03-27T21:41:47.200Z,100413.47
2023-03-27T21:44:53.760Z,100426.25
2023-03-27T21:47:58.599Z,100432.50
2023-03-27T21:51:06.250Z,100420.19
2023-03-27T21:54:09.238Z,100429.84
2023-03-27T21:57:12.102Z,100422.19
2023-03-27T22:00:15.949Z,100425.63
2023-03-27T22:03:18.859Z,100426.75
2023-03-27T22:06:21.927Z,100440.03
2023-03-27T22:09:24.776Z,100435.81
2023-03-27T22:12:27.892Z,100433.81
2023-03-27T22:15:31.225Z,100442.84
2023-03-27T22:18:34.000Z,100440.03
2023-03-27T22:21:37.454Z,100435.78
2023-03-27T22:24:40.483Z,100452.81
2023-03-27T22:27:43.234Z,100447.09
2023-03-27T22:30:46.581Z,100463.28
2023-03-27T22:33:50.568Z,100465.44
2023-03-27T22:36:53.360Z,100479.53
2023-03-27T22:39:56.115Z,100481.50
2023-03-27T22:42:58.881Z,100488.88
2023-03-27T22:46:22.135Z,100492.94
2023-03-27T22:49:24.945Z,100506.03
2023-03-27T22:52:28.116Z,100506.53
2023-03-27T22:55:31.313Z,100514.72
2023-03-27T22:58:34.457Z,100517.34
2023-03-27T23:01:37.459Z,100511.59
2023-03-27T23:04:40.894Z,100527.50
2023-03-27T23:07:43.629Z,100527.63
2023-03-27T23:10:58.310Z,100534.34
2023-03-27T23:14:01.327Z,100536.78
2023-03-27T23:17:04.319Z,100544.28
2023-03-27T23:20:07.958Z,100535.59
2023-03-27T23:23:10.862Z,100535.59
2023-03-27T23:26:14.196Z,100543.13
2023-03-27T23:29:17.017Z,100551.47
2023-03-27T23:32:19.758Z,100551.78
2023-03-27T23:35:22.480Z,100563.56
2023-03-27T23:38:25.430Z,100576.19
2023-03-27T23:41:29.642Z,100580.41
2023-03-27T23:44:32.445Z,100580.09
2023-03-27T23:47:35.294Z,100582.84
2023-03-27T23:50:38.601Z,100588.41
2023-03-27T23:53:42.035Z,100590.34
2023-03-27T23:56:44.878Z,100580.56
2023-03-27T23:59:47.690Z,100588.25
